KMDH/MDH METAR and TAF weather

Enter ICAO airport designator
Station Type Date Time Source
KMDH METAR 2020/07/02 20:52 UTC NOAA

KMDH 022052Z 00000KT 10SM FEW029 FEW040 31/23 A2996 RMK AO2 SLP141 T03060233 58007


Station Type Date Time Source
KMDH Decoded METAR 2020/07/02 20:52 UTC NOAA

SOUTHERN ILLINOIS AIRPORT, IL, United States (KMDH) 37-47N 089-15W 130M
Jul 02, 2020 - 04:52 PM EDT / 2020.07.02 2052 UTC
Wind: Calm:0
Visibility: 10 mile(s):0
Sky conditions: mostly clear
Temperature: 87.1 F (30.6 C)
Heat index: 95.4 F (35.2 C):1
Dew Point: 73.9 F (23.3 C)
Relative Humidity: 65%
Pressure (altimeter): 29.96 in. Hg (1014 hPa)
Pressure tendency: 0.02 inches (0.7 hPa) lower than three hours ago
ob: KMDH 022052Z 00000KT 10SM FEW029 FEW040 31/23 A2996 RMK AO2 SLP141 T03060233 58007
cycle: 21

Station Type Date Time Source
KMDH TAF UTC NOAA

Error!

Example: see airport list